Time;durP1;ratioP1;P1;durP2;ratioP2;P2;SDS_P1;SDS_P2;PMS_P1;PMS_P2;Temp;Humidity;BMP_temperature;BMP_pressure;BME280_temperature;BME280_humidity;BME280_pressure;Samples;Min_cycle;Max_cycle;Signal;HPM_P1;HPM_P2
2022/05/24 00:00:11;;;;;;;0.10;0.10;;;;;;;;;;5096452;28;20020;-83
2022/05/24 00:02:37;;;;;;;0.10;0.10;;;;;;;;;;5114738;28;20034;-84
2022/05/24 00:05:03;;;;;;;0.10;0.10;;;;;;;;;;5114627;28;20051;-83
2022/05/24 00:07:30;;;;;;;0.10;0.10;;;;;;;;;;5114239;28;20020;-83
2022/05/24 00:09:56;;;;;;;0.10;0.10;;;;;;;;;;5114553;28;20387;-84
2022/05/24 00:12:22;;;;;;;0.10;0.10;;;;;;;;;;5095881;28;20076;-83
2022/05/24 00:17:33;;;;;;;0.10;0.10;;;;;;;;;;5114232;28;20050;-83
2022/05/24 00:20:00;;;;;;;0.10;0.10;;;;;;;;;;5114376;28;20019;-83
2022/05/24 00:22:26;;;;;;;0.10;0.10;;;;;;;;;;5095929;28;20027;-83
2022/05/24 00:24:52;;;;;;;0.10;0.10;;;;;;;;;;5114261;28;20094;-83
2022/05/24 00:27:18;;;;;;;0.10;0.10;;;;;;;;;;5114009;28;20457;-83
2022/05/24 00:29:44;;;;;;;0.10;0.10;;;;;;;;;;5114196;28;20062;-83
2022/05/24 00:32:10;;;;;;;0.10;0.10;;;;;;;;;;5114307;28;20051;-83
2022/05/24 00:34:36;;;;;;;0.10;0.10;;;;;;;;;;5113745;28;20051;-82
2022/05/24 00:37:02;;;;;;;0.10;0.10;;;;;;;;;;5113920;28;20467;-82
2022/05/24 00:39:28;;;;;;;0.10;0.10;;;;;;;;;;5113664;28;20031;-84
2022/05/24 00:42:00;;;;;;;0.10;0.10;;;;;;;;;;5095699;28;20498;-83
2022/05/24 00:44:38;;;;;;;0.10;0.10;;;;;;;;;;5095390;28;20101;-83
2022/05/24 00:47:10;;;;;;;0.10;0.10;;;;;;;;;;5095691;28;20026;-84
2022/05/24 00:49:45;;;;;;;0.10;0.10;;;;;;;;;;5095241;28;20364;-82
2022/05/24 00:52:14;;;;;;;0.10;0.10;;;;;;;;;;5095813;28;20454;-84
2022/05/24 00:54:40;;;;;;;0.10;0.10;;;;;;;;;;5095750;28;20069;-84
2022/05/24 00:57:28;;;;;;;0.10;0.10;;;;;;;;;;5113481;28;20075;-83
2022/05/24 01:00:10;;;;;;;0.10;0.10;;;;;;;;;;5113713;28;20023;-81
2022/05/24 01:02:41;;;;;;;0.20;0.20;;;;;;;;;;5113340;28;20027;-83
2022/05/24 01:05:09;;;;;;;0.10;0.10;;;;;;;;;;5095887;28;20028;-82
2022/05/24 01:07:36;;;;;;;0.10;0.10;;;;;;;;;;5095055;28;20483;-85
2022/05/24 01:10:08;;;;;;;0.10;0.10;;;;;;;;;;5095408;28;20068;-85
2022/05/24 01:12:39;;;;;;;0.10;0.10;;;;;;;;;;5095165;28;20494;-84
2022/05/24 01:15:06;;;;;;;0.10;0.10;;;;;;;;;;5113289;28;20032;-84
2022/05/24 01:17:33;;;;;;;0.10;0.10;;;;;;;;;;5094719;28;20515;-83
2022/05/24 01:19:59;;;;;;;0.10;0.10;;;;;;;;;;5112666;28;20157;-84
2022/05/24 01:22:42;;;;;;;0.10;0.10;;;;;;;;;;5113043;28;20030;-83
2022/05/24 01:25:24;;;;;;;0.10;0.10;;;;;;;;;;5095002;28;20020;-84
2022/05/24 01:27:50;;;;;;;0.10;0.10;;;;;;;;;;5113085;28;20024;-85
2022/05/24 01:30:16;;;;;;;0.10;0.10;;;;;;;;;;5112680;28;20107;-84
2022/05/24 01:38:15;;;;;;;0.10;0.10;;;;;;;;;;5113200;28;20065;-83
2022/05/24 01:40:41;;;;;;;0.20;0.20;;;;;;;;;;5113235;28;20020;-84
2022/05/24 01:43:07;;;;;;;0.10;0.10;;;;;;;;;;5094719;28;20410;-83
2022/05/24 01:45:36;;;;;;;0.10;0.10;;;;;;;;;;5094666;28;20022;-83
2022/05/24 01:48:05;;;;;;;0.10;0.10;;;;;;;;;;5112670;28;20024;-84
2022/05/24 01:50:33;;;;;;;0.10;0.10;;;;;;;;;;5094185;28;20357;-83
2022/05/24 01:53:06;;;;;;;0.20;0.20;;;;;;;;;;5112608;28;20062;-84
2022/05/24 01:55:34;;;;;;;0.10;0.10;;;;;;;;;;5112324;28;20024;-83
2022/05/24 01:58:02;;;;;;;16.17;14.90;;;;;;;;;;5112349;28;20046;-84
2022/05/24 02:00:28;;;;;;;0.10;0.10;;;;;;;;;;5093966;28;20026;-82
2022/05/24 02:02:54;;;;;;;0.10;0.10;;;;;;;;;;5112361;28;20024;-83
2022/05/24 02:05:31;;;;;;;0.20;0.20;;;;;;;;;;5093811;28;20026;-83
2022/05/24 02:07:58;;;;;;;0.10;0.10;;;;;;;;;;5094019;28;20031;-83
2022/05/24 02:10:24;;;;;;;0.10;0.10;;;;;;;;;;5112229;28;20152;-83
2022/05/24 02:12:53;;;;;;;0.10;0.10;;;;;;;;;;5093874;28;20035;-83
2022/05/24 02:15:23;;;;;;;0.15;0.15;;;;;;;;;;5111999;28;20023;-83
2022/05/24 02:17:49;;;;;;;0.10;0.10;;;;;;;;;;5112192;28;20037;-82
2022/05/24 02:20:18;;;;;;;0.10;0.10;;;;;;;;;;5111853;28;20015;-82
2022/05/24 02:22:45;;;;;;;0.10;0.10;;;;;;;;;;5093726;28;20475;-83
2022/05/24 02:25:15;;;;;;;0.10;0.10;;;;;;;;;;5094286;28;20027;-82
2022/05/24 02:27:45;;;;;;;0.10;0.10;;;;;;;;;;5112426;28;20019;-84
2022/05/24 02:30:22;;;;;;;0.20;0.20;;;;;;;;;;5112007;28;20023;-82
2022/05/24 02:32:48;;;;;;;0.10;0.10;;;;;;;;;;5111595;28;20098;-83
2022/05/24 02:35:14;;;;;;;0.10;0.10;;;;;;;;;;5093523;28;20455;-82
2022/05/24 02:37:40;;;;;;;0.10;0.10;;;;;;;;;;5112045;28;20115;-84
2022/05/24 02:43:02;;;;;;;0.10;0.10;;;;;;;;;;5039099;28;20092;-85
2022/05/24 02:45:28;;;;;;;0.10;0.10;;;;;;;;;;5093302;28;20016;-83
2022/05/24 02:47:54;;;;;;;0.10;0.10;;;;;;;;;;5093664;28;20464;-84
2022/05/24 02:50:21;;;;;;;0.10;0.10;;;;;;;;;;5111476;28;20038;-84
2022/05/24 02:52:47;;;;;;;0.10;0.10;;;;;;;;;;5093507;28;20032;-85
2022/05/24 02:55:13;;;;;;;0.10;0.10;;;;;;;;;;5093398;28;20048;-85
2022/05/24 02:57:39;;;;;;;0.10;0.10;;;;;;;;;;5093837;28;20043;-85
2022/05/24 03:00:11;;;;;;;0.10;0.10;;;;;;;;;;5111624;28;20455;-85
2022/05/24 03:02:38;;;;;;;0.10;0.10;;;;;;;;;;5111895;28;20034;-84
2022/05/24 03:05:06;;;;;;;0.10;0.10;;;;;;;;;;5111442;28;20054;-84
2022/05/24 03:10:17;;;;;;;0.10;0.10;;;;;;;;;;5111505;28;20395;-84
2022/05/24 03:15:28;;;;;;;0.10;0.10;;;;;;;;;;5111653;28;20096;-84
2022/05/24 03:17:54;;;;;;;0.10;0.10;;;;;;;;;;5111379;28;20040;-84
2022/05/24 03:20:20;;;;;;;0.10;0.10;;;;;;;;;;5092401;28;20020;-86
2022/05/24 03:22:46;;;;;;;0.10;0.10;;;;;;;;;;5097222;28;20028;-83
2022/05/24 03:25:13;;;;;;;0.10;0.10;;;;;;;;;;5123525;28;20016;-83
2022/05/24 03:27:39;;;;;;;0.10;0.10;;;;;;;;;;5132177;28;20469;-85
2022/05/24 03:30:06;;;;;;;0.10;0.10;;;;;;;;;;5132048;28;20102;-84
2022/05/24 03:32:36;;;;;;;0.10;0.10;;;;;;;;;;5129916;28;20031;-83
2022/05/24 03:35:03;;;;;;;0.10;0.10;;;;;;;;;;5113536;28;20024;-83
2022/05/24 03:37:29;;;;;;;0.15;0.15;;;;;;;;;;5113253;28;20386;-84
2022/05/24 03:39:55;;;;;;;0.10;0.10;;;;;;;;;;5113567;28;20031;-84
2022/05/24 03:42:21;;;;;;;0.10;0.10;;;;;;;;;;5132875;27;20020;-83
2022/05/24 03:44:47;;;;;;;0.10;0.10;;;;;;;;;;5133613;27;20023;-84
2022/05/24 03:47:13;;;;;;;0.10;0.10;;;;;;;;;;5114565;28;20080;-82
2022/05/24 03:49:39;;;;;;;0.10;0.10;;;;;;;;;;5114036;28;20030;-83
2022/05/24 03:52:05;;;;;;;0.10;0.10;;;;;;;;;;5115040;28;20020;-83
2022/05/24 03:54:32;;;;;;;0.10;0.10;;;;;;;;;;5114699;28;20494;-83
2022/05/24 03:59:43;;;;;;;0.10;0.10;;;;;;;;;;5125477;27;20045;-83
2022/05/24 04:02:09;;;;;;;0.10;0.10;;;;;;;;;;5116084;27;20506;-84
2022/05/24 04:04:35;;;;;;;0.10;0.10;;;;;;;;;;5096206;28;20023;-83
2022/05/24 04:07:01;;;;;;;0.10;0.10;;;;;;;;;;5114606;28;20039;-83
2022/05/24 04:09:27;;;;;;;0.10;0.10;;;;;;;;;;5096104;28;20392;-84
2022/05/24 04:11:54;;;;;;;0.10;0.10;;;;;;;;;;5114729;28;20024;-83
2022/05/24 04:14:20;;;;;;;0.10;0.10;;;;;;;;;;5103650;27;20038;-84
2022/05/24 04:16:46;;;;;;;0.10;0.10;;;;;;;;;;5116455;27;20046;-84
2022/05/24 04:19:12;;;;;;;0.10;0.10;;;;;;;;;;5134769;27;20106;-84
2022/05/24 04:21:38;;;;;;;0.10;0.10;;;;;;;;;;5133223;27;20474;-84
2022/05/24 04:24:04;;;;;;;0.10;0.10;;;;;;;;;;5116638;27;20029;-84
2022/05/24 04:26:30;;;;;;;0.10;0.10;;;;;;;;;;5134557;27;20019;-85
2022/05/24 04:28:57;;;;;;;0.10;0.10;;;;;;;;;;5115693;27;20506;-84
2022/05/24 04:31:23;;;;;;;0.10;0.10;;;;;;;;;;5116139;27;20398;-84
2022/05/24 04:33:50;;;;;;;0.10;0.10;;;;;;;;;;5097767;28;20027;-84
2022/05/24 04:36:16;;;;;;;0.10;0.10;;;;;;;;;;5095489;28;20034;-84
2022/05/24 04:38:42;;;;;;;0.17;0.17;;;;;;;;;;5095954;28;20544;-84
2022/05/24 04:43:53;;;;;;;0.20;0.20;;;;;;;;;;5123857;27;20045;-83
2022/05/24 04:46:19;;;;;;;0.10;0.10;;;;;;;;;;5113699;27;20114;-84
2022/05/24 04:48:45;;;;;;;0.10;0.10;;;;;;;;;;5134035;27;20481;-84
2022/05/24 04:51:12;;;;;;;0.10;0.10;;;;;;;;;;5116284;27;20066;-84
2022/05/24 04:53:38;;;;;;;0.10;0.10;;;;;;;;;;5115197;28;20031;-84
2022/05/24 04:56:04;;;;;;;0.10;0.10;;;;;;;;;;5115705;27;20431;-84
2022/05/24 04:58:30;;;;;;;0.15;0.15;;;;;;;;;;5131737;27;20031;-84
2022/05/24 05:00:56;;;;;;;0.10;0.10;;;;;;;;;;5097021;28;20031;-84
2022/05/24 05:03:22;;;;;;;0.10;0.10;;;;;;;;;;5095176;28;20395;-84
2022/05/24 05:05:50;;;;;;;0.10;0.10;;;;;;;;;;5113797;28;20035;-84
2022/05/24 05:08:16;;;;;;;0.10;0.10;;;;;;;;;;5094720;28;20019;-83
2022/05/24 05:10:42;;;;;;;0.17;0.17;;;;;;;;;;5105760;27;20042;-84
2022/05/24 05:13:08;;;;;;;0.13;0.13;;;;;;;;;;5097083;28;20061;-84
2022/05/24 05:15:37;;;;;;;0.17;0.17;;;;;;;;;;5096076;28;20031;-83
2022/05/24 05:18:07;;;;;;;0.13;0.13;;;;;;;;;;5129516;27;20486;-84
2022/05/24 05:20:38;;;;;;;0.20;0.20;;;;;;;;;;5102263;28;20049;-84
2022/05/24 05:23:05;;;;;;;0.10;0.10;;;;;;;;;;5095026;28;20031;-84
2022/05/24 05:25:31;;;;;;;0.10;0.10;;;;;;;;;;5094532;28;20384;-84
2022/05/24 05:27:57;;;;;;;0.10;0.10;;;;;;;;;;5094966;28;20027;-84
2022/05/24 05:33:08;;;;;;;0.10;0.10;;;;;;;;;;5113682;28;20517;-83
2022/05/24 05:35:34;;;;;;;0.10;0.10;;;;;;;;;;5119318;27;20478;-82
2022/05/24 05:38:00;;;;;;;0.10;0.10;;;;;;;;;;5130198;27;20526;-82
2022/05/24 05:40:26;;;;;;;0.10;0.10;;;;;;;;;;5108107;27;20074;-84
2022/05/24 05:42:52;;;;;;;0.10;0.10;;;;;;;;;;5097082;27;20026;-81
2022/05/24 05:45:18;;;;;;;0.10;0.10;;;;;;;;;;5128289;27;20079;-84
2022/05/24 05:47:44;;;;;;;0.10;0.10;;;;;;;;;;5133473;27;20027;-87
2022/05/24 05:50:10;;;;;;;0.10;0.10;;;;;;;;;;5105050;28;20036;-84
2022/05/24 05:52:36;;;;;;;0.10;0.10;;;;;;;;;;5097334;28;20069;-84
2022/05/24 05:55:03;;;;;;;0.10;0.10;;;;;;;;;;5094307;28;20028;-85
2022/05/24 05:57:29;;;;;;;0.20;0.20;;;;;;;;;;5112450;27;20074;-82
2022/05/24 05:59:55;;;;;;;0.10;0.10;;;;;;;;;;5123597;27;20023;-82
2022/05/24 06:02:21;;;;;;;0.10;0.10;;;;;;;;;;5132890;27;20019;-83
2022/05/24 06:04:47;;;;;;;0.10;0.10;;;;;;;;;;5132874;27;20033;-87
2022/05/24 06:07:13;;;;;;;0.10;0.10;;;;;;;;;;5131036;27;20027;-82
2022/05/24 06:09:39;;;;;;;0.20;0.20;;;;;;;;;;5133163;27;20025;-83
2022/05/24 06:12:05;;;;;;;0.20;0.20;;;;;;;;;;5133041;27;20383;-84
2022/05/24 06:14:31;;;;;;;0.10;0.10;;;;;;;;;;5112096;27;20034;-84
2022/05/24 06:16:57;;;;;;;0.10;0.10;;;;;;;;;;5112332;28;20028;-86
2022/05/24 06:19:23;;;;;;;0.10;0.10;;;;;;;;;;5112212;27;20035;-83
2022/05/24 06:21:49;;;;;;;0.10;0.10;;;;;;;;;;5111896;28;20479;-83
2022/05/24 06:24:15;;;;;;;0.10;0.10;;;;;;;;;;5111193;28;20486;-81
2022/05/24 06:26:43;;;;;;;0.15;0.15;;;;;;;;;;5123513;27;20024;-81
2022/05/24 06:29:09;;;;;;;0.10;0.10;;;;;;;;;;5112120;28;20020;-82
2022/05/24 06:31:35;;;;;;;0.10;0.10;;;;;;;;;;5093414;28;20466;-81
2022/05/24 06:34:01;;;;;;;0.10;0.10;;;;;;;;;;5111919;28;20053;-80
2022/05/24 06:36:27;;;;;;;0.10;0.10;;;;;;;;;;5093192;28;20043;-80
2022/05/24 06:38:53;;;;;;;0.10;0.10;;;;;;;;;;5093140;28;20483;-80
2022/05/24 06:41:19;;;;;;;0.10;0.10;;;;;;;;;;5111494;28;20019;-80
2022/05/24 06:43:45;;;;;;;0.10;0.10;;;;;;;;;;5111694;28;20043;-82
2022/05/24 06:46:11;;;;;;;0.10;0.10;;;;;;;;;;5111999;28;20028;-80
2022/05/24 06:48:38;;;;;;;0.10;0.10;;;;;;;;;;5111758;28;20020;-80
2022/05/24 06:51:12;;;;;;;0.10;0.10;;;;;;;;;;5111602;28;20364;-82
2022/05/24 06:53:42;;;;;;;0.10;0.10;;;;;;;;;;5111965;28;20028;-82
2022/05/24 06:56:08;;;;;;;0.10;0.10;;;;;;;;;;5111962;28;20469;-83
2022/05/24 06:58:35;;;;;;;0.10;0.10;;;;;;;;;;5111386;28;20032;-82
2022/05/24 07:03:47;;;;;;;0.08;0.08;;;;;;;;;;5112009;28;20034;-83
2022/05/24 07:06:15;;;;;;;0.10;0.10;;;;;;;;;;5111381;28;20128;-82
2022/05/24 07:08:41;;;;;;;0.10;0.10;;;;;;;;;;5111914;28;20019;-81
2022/05/24 07:11:07;;;;;;;0.10;0.10;;;;;;;;;;5111774;28;20040;-82
2022/05/24 07:13:33;;;;;;;0.10;0.10;;;;;;;;;;5093018;28;20032;-82
2022/05/24 07:15:59;;;;;;;0.20;0.20;;;;;;;;;;5108350;28;20040;-82
2022/05/24 07:18:26;;;;;;;0.10;0.10;;;;;;;;;;5108939;28;20539;-82
2022/05/24 07:20:52;;;;;;;0.10;0.10;;;;;;;;;;5107012;27;20051;-83
2022/05/24 07:23:20;;;;;;;0.10;0.10;;;;;;;;;;5140003;27;20098;-84
2022/05/24 07:25:47;;;;;;;0.10;0.10;;;;;;;;;;5092382;28;20395;-83
2022/05/24 07:28:18;;;;;;;0.10;0.10;;;;;;;;;;5104741;28;20034;-82
2022/05/24 07:30:44;;;;;;;0.10;0.10;;;;;;;;;;5077261;28;20028;-85
2022/05/24 07:33:10;;;;;;;0.10;0.10;;;;;;;;;;5089804;28;20038;-84
2022/05/24 07:35:37;;;;;;;0.10;0.10;;;;;;;;;;5095816;28;20028;-84
2022/05/24 07:38:06;;;;;;;0.10;0.10;;;;;;;;;;5096218;28;20068;-84
2022/05/24 07:46:04;;;;;;;0.10;0.10;;;;;;;;;;5115126;27;20038;-85
2022/05/24 07:48:30;;;;;;;0.10;0.10;;;;;;;;;;5113387;28;20016;-83
2022/05/24 07:50:56;;;;;;;0.20;0.20;;;;;;;;;;5096575;28;20030;-84
2022/05/24 07:53:22;;;;;;;0.10;0.10;;;;;;;;;;5114898;28;20027;-84
2022/05/24 07:55:48;;;;;;;0.10;0.10;;;;;;;;;;5096565;28;20027;-84
2022/05/24 07:58:14;;;;;;;0.10;0.10;;;;;;;;;;5095704;28;20047;-84
2022/05/24 08:00:41;;;;;;;0.10;0.10;;;;;;;;;;5096716;27;21304;-86
2022/05/24 08:03:07;;;;;;;0.10;0.10;;;;;;;;;;5094846;28;20506;-84
2022/05/24 08:05:34;;;;;;;0.10;0.10;;;;;;;;;;5094252;28;20030;-84
2022/05/24 08:08:00;;;;;;;0.10;0.10;;;;;;;;;;5095485;28;20031;-84
2022/05/24 08:10:28;;;;;;;0.10;0.10;;;;;;;;;;5095992;28;20042;-83
2022/05/24 08:12:54;;;;;;;0.10;0.10;;;;;;;;;;5114494;28;20023;-84
2022/05/24 08:15:20;;;;;;;0.10;0.10;;;;;;;;;;5119962;27;20141;-84
2022/05/24 08:17:46;;;;;;;0.10;0.10;;;;;;;;;;5112455;28;20040;-82
2022/05/24 08:20:13;;;;;;;0.10;0.10;;;;;;;;;;5114601;28;20111;-84
2022/05/24 08:22:40;;;;;;;0.10;0.10;;;;;;;;;;5095940;28;20106;-84
2022/05/24 08:25:07;;;;;;;0.10;0.10;;;;;;;;;;5095608;28;20092;-84
2022/05/24 08:27:33;;;;;;;0.10;0.10;;;;;;;;;;5095284;28;20119;-81
2022/05/24 08:29:59;;;;;;;0.10;0.10;;;;;;;;;;5094481;28;20044;-82
2022/05/24 08:32:26;;;;;;;0.10;0.10;;;;;;;;;;5113506;28;20028;-82
2022/05/24 08:34:52;;;;;;;0.10;0.10;;;;;;;;;;5113797;28;20106;-82
2022/05/24 08:37:18;;;;;;;0.10;0.10;;;;;;;;;;5112707;28;20471;-81
2022/05/24 08:39:45;;;;;;;0.10;0.10;;;;;;;;;;5113948;28;20023;-81
2022/05/24 08:42:20;;;;;;;0.10;0.10;;;;;;;;;;5113689;28;20028;-79
2022/05/24 08:50:25;;;;;;;0.10;0.10;;;;;;;;;;5113458;28;20030;-80
2022/05/24 08:52:55;;;;;;;0.10;0.10;;;;;;;;;;5113755;28;20034;-79
2022/05/24 08:55:21;;;;;;;0.10;0.10;;;;;;;;;;5113415;28;20047;-79
2022/05/24 08:57:55;;;;;;;0.10;0.10;;;;;;;;;;5113494;28;20085;-79
2022/05/24 09:00:30;;;;;;;0.10;0.10;;;;;;;;;;5113781;28;20046;-81
2022/05/24 09:02:57;;;;;;;0.10;0.10;;;;;;;;;;5095230;28;20467;-81
2022/05/24 09:05:47;;;;;;;0.10;0.10;;;;;;;;;;5094963;28;20058;-80
2022/05/24 09:08:21;;;;;;;0.17;0.17;;;;;;;;;;5113440;28;20095;-79
2022/05/24 09:10:50;;;;;;;0.10;0.10;;;;;;;;;;5113480;28;20028;-80
2022/05/24 09:13:23;;;;;;;0.10;0.10;;;;;;;;;;5094794;28;20031;-81
2022/05/24 09:15:50;;;;;;;0.10;0.10;;;;;;;;;;5113391;28;20019;-80
2022/05/24 09:18:20;;;;;;;0.10;0.10;;;;;;;;;;5113054;28;20042;-82
2022/05/24 09:20:47;;;;;;;0.10;0.10;;;;;;;;;;5113229;28;20020;-79
2022/05/24 09:23:19;;;;;;;0.10;0.10;;;;;;;;;;5112804;28;20031;-81
2022/05/24 09:25:54;;;;;;;0.10;0.10;;;;;;;;;;5113113;28;20482;-82
2022/05/24 09:28:20;;;;;;;0.17;0.17;;;;;;;;;;5112919;28;20028;-80
2022/05/24 09:30:46;;;;;;;0.10;0.10;;;;;;;;;;5094688;28;20295;-79
2022/05/24 09:33:18;;;;;;;0.10;0.10;;;;;;;;;;5094404;28;20024;-79
2022/05/24 09:35:44;;;;;;;0.10;0.10;;;;;;;;;;5112820;28;20024;-80
2022/05/24 09:38:16;;;;;;;0.10;0.10;;;;;;;;;;5113076;28;20479;-80
2022/05/24 09:40:48;;;;;;;0.10;0.10;;;;;;;;;;5094106;28;20032;-80
2022/05/24 09:43:18;;;;;;;0.10;0.10;;;;;;;;;;5112526;28;20055;-79
2022/05/24 09:45:46;;;;;;;0.10;0.10;;;;;;;;;;5094449;28;20023;-80
2022/05/24 09:48:21;;;;;;;0.10;0.10;;;;;;;;;;5094017;28;20395;-80
2022/05/24 09:50:50;;;;;;;0.10;0.10;;;;;;;;;;5094150;28;20023;-80
2022/05/24 09:53:18;;;;;;;0.10;0.10;;;;;;;;;;5112424;28;20031;-80
2022/05/24 09:55:59;;;;;;;0.10;0.10;;;;;;;;;;5094187;28;20019;-80
2022/05/24 09:58:39;;;;;;;0.10;0.10;;;;;;;;;;5112132;28;20390;-80
2022/05/24 10:01:06;;;;;;;0.10;0.10;;;;;;;;;;5094117;28;20110;-79
2022/05/24 10:03:35;;;;;;;0.10;0.10;;;;;;;;;;5112201;28;20020;-80
2022/05/24 10:06:10;;;;;;;0.10;0.10;;;;;;;;;;5094024;28;20372;-80
2022/05/24 10:08:47;;;;;;;0.10;0.10;;;;;;;;;;5093847;28;20023;-81
2022/05/24 10:11:20;;;;;;;0.20;0.20;;;;;;;;;;5111872;28;20024;-81
2022/05/24 10:13:58;;;;;;;0.10;0.10;;;;;;;;;;5112153;28;20027;-81
2022/05/24 10:16:34;;;;;;;0.10;0.10;;;;;;;;;;5111919;28;20108;-80
2022/05/24 10:19:00;;;;;;;0.10;0.10;;;;;;;;;;5112158;28;20105;-81
2022/05/24 10:21:36;;;;;;;0.15;0.15;;;;;;;;;;5111664;28;20089;-80
2022/05/24 10:24:11;;;;;;;0.15;0.15;;;;;;;;;;5111994;28;20114;-82
2022/05/24 10:26:55;;;;;;;0.13;0.13;;;;;;;;;;5112213;28;20019;-82
2022/05/24 10:29:51;;;;;;;0.10;0.10;;;;;;;;;;5093443;28;20481;-82
2022/05/24 10:38:17;;;;;;;0.10;0.10;;;;;;;;;;5022872;28;20517;-82
2022/05/24 10:38:20;;;;;;;0.10;0.10;;;;;;;;;;5111875;28;20064;-82
2022/05/24 10:41:08;;;;;;;0.10;0.10;;;;;;;;;;5092156;28;20035;-82
2022/05/24 10:43:40;;;;;;;0.10;0.10;;;;;;;;;;5093281;28;20023;-82
2022/05/24 10:46:13;;;;;;;0.10;0.10;;;;;;;;;;5110977;28;20036;-83
2022/05/24 10:48:43;;;;;;;0.10;0.10;;;;;;;;;;5092957;28;20069;-82
2022/05/24 10:51:14;;;;;;;0.10;0.10;;;;;;;;;;5092882;28;20399;-82
2022/05/24 10:53:45;;;;;;;0.10;0.10;;;;;;;;;;5092591;28;20075;-82
2022/05/24 10:56:23;;;;;;;0.10;0.10;;;;;;;;;;5108342;28;20562;-82
2022/05/24 10:58:50;;;;;;;0.10;0.10;;;;;;;;;;5121169;28;20028;-82
2022/05/24 11:01:27;;;;;;;0.10;0.10;;;;;;;;;;5119721;28;20110;-81
2022/05/24 11:03:56;;;;;;;0.10;0.10;;;;;;;;;;5117606;28;20542;-81
2022/05/24 11:06:40;;;;;;;0.10;0.10;;;;;;;;;;5104993;28;20108;-81
2022/05/24 11:09:15;;;;;;;0.10;0.10;;;;;;;;;;5120864;28;20024;-81
2022/05/24 11:11:57;;;;;;;0.10;0.10;;;;;;;;;;5121254;28;20073;-79
2022/05/24 11:14:23;;;;;;;0.10;0.10;;;;;;;;;;5111645;28;20388;-80
2022/05/24 11:16:49;;;;;;;0.10;0.10;;;;;;;;;;5099610;28;20022;-80
2022/05/24 11:19:17;;;;;;;0.10;0.10;;;;;;;;;;5113525;28;20035;-84
2022/05/24 11:21:47;;;;;;;0.10;0.10;;;;;;;;;;5120033;28;20475;-82
2022/05/24 11:24:28;;;;;;;0.10;0.10;;;;;;;;;;5118974;28;20147;-83
2022/05/24 11:26:55;;;;;;;0.10;0.10;;;;;;;;;;5119428;28;20045;-82
2022/05/24 11:29:34;;;;;;;0.10;0.10;;;;;;;;;;5120744;28;20030;-81
2022/05/24 11:32:06;;;;;;;0.10;0.10;;;;;;;;;;5115882;28;20034;-80
2022/05/24 11:34:39;;;;;;;0.10;0.10;;;;;;;;;;5111064;28;20030;-79
2022/05/24 11:37:05;;;;;;;0.10;0.10;;;;;;;;;;5121875;28;20059;-79
2022/05/24 11:39:36;;;;;;;0.10;0.10;;;;;;;;;;5119251;28;20521;-79
2022/05/24 11:42:21;;;;;;;0.10;0.10;;;;;;;;;;5097235;28;20036;-80
2022/05/24 11:44:48;;;;;;;0.10;0.10;;;;;;;;;;5111311;28;20067;-83
2022/05/24 11:47:33;;;;;;;0.10;0.10;;;;;;;;;;5092798;28;20023;-79
2022/05/24 11:50:00;;;;;;;0.10;0.10;;;;;;;;;;5092969;28;20028;-83
2022/05/24 11:52:46;;;;;;;0.10;0.10;;;;;;;;;;5110950;28;20368;-81
2022/05/24 11:55:32;;;;;;;0.10;0.10;;;;;;;;;;5092987;28;20126;-80
2022/05/24 11:58:04;;;;;;;0.10;0.10;;;;;;;;;;5092228;28;20070;-82
2022/05/24 12:00:32;;;;;;;0.10;0.10;;;;;;;;;;5090730;28;20063;-82
2022/05/24 12:08:33;;;;;;;0.10;0.10;;;;;;;;;;5114590;28;20038;-79
2022/05/24 12:11:05;;;;;;;0.10;0.10;;;;;;;;;;5114638;28;20084;-79
2022/05/24 12:13:32;;;;;;;0.10;0.10;;;;;;;;;;5095897;28;20032;-79
2022/05/24 12:16:03;;;;;;;0.10;0.10;;;;;;;;;;5114474;28;20098;-81
2022/05/24 12:18:41;;;;;;;0.10;0.10;;;;;;;;;;5114102;28;20031;-80
2022/05/24 12:21:07;;;;;;;0.10;0.10;;;;;;;;;;5114665;28;20026;-81
2022/05/24 12:23:35;;;;;;;0.10;0.10;;;;;;;;;;5114104;28;20499;-80
2022/05/24 12:26:07;;;;;;;0.10;0.10;;;;;;;;;;5114306;28;20058;-81
2022/05/24 12:28:36;;;;;;;0.10;0.10;;;;;;;;;;5113923;28;20050;-80
2022/05/24 12:31:08;;;;;;;0.10;0.10;;;;;;;;;;5114239;28;20030;-80
2022/05/24 12:33:34;;;;;;;0.10;0.10;;;;;;;;;;5095584;28;20051;-79
2022/05/24 12:36:06;;;;;;;0.10;0.10;;;;;;;;;;5114031;28;20618;-80
2022/05/24 12:38:32;;;;;;;0.10;0.10;;;;;;;;;;5113740;28;20040;-82
2022/05/24 12:41:09;;;;;;;0.10;0.10;;;;;;;;;;5095713;28;20020;-82
2022/05/24 12:43:36;;;;;;;0.10;0.10;;;;;;;;;;5113689;28;20027;-81
2022/05/24 12:46:02;;;;;;;0.10;0.10;;;;;;;;;;5095612;28;20436;-81
2022/05/24 12:48:33;;;;;;;0.10;0.10;;;;;;;;;;5113515;28;20386;-81
2022/05/24 12:51:01;;;;;;;0.10;0.10;;;;;;;;;;5113779;28;20028;-83
2022/05/24 12:53:27;;;;;;;0.10;0.10;;;;;;;;;;5113472;28;20395;-81
2022/05/24 12:55:59;;;;;;;0.10;0.10;;;;;;;;;;5095358;28;20394;-80
2022/05/24 12:58:29;;;;;;;0.10;0.10;;;;;;;;;;5113343;28;20054;-80
2022/05/24 13:01:08;;;;;;;0.10;0.10;;;;;;;;;;5113688;28;20028;-80
2022/05/24 13:03:34;;;;;;;0.10;0.10;;;;;;;;;;5113390;28;20028;-80
2022/05/24 13:06:00;;;;;;;0.10;0.10;;;;;;;;;;5113613;28;20049;-81
2022/05/24 13:08:26;;;;;;;0.10;0.10;;;;;;;;;;5095039;28;20023;-81
2022/05/24 13:10:52;;;;;;;0.10;0.10;;;;;;;;;;5113604;28;20024;-80
2022/05/24 13:13:20;;;;;;;0.10;0.10;;;;;;;;;;5113104;28;20036;-81
2022/05/24 13:15:57;;;;;;;0.10;0.10;;;;;;;;;;5112646;28;20514;-81
2022/05/24 13:18:29;;;;;;;0.10;0.10;;;;;;;;;;5113124;28;20035;-80
2022/05/24 13:20:57;;;;;;;0.10;0.10;;;;;;;;;;5094983;28;20051;-82
2022/05/24 13:23:31;;;;;;;0.10;0.10;;;;;;;;;;5113030;28;20028;-80
2022/05/24 13:26:12;;;;;;;0.10;0.10;;;;;;;;;;5113118;28;20035;-82
2022/05/24 13:28:39;;;;;;;0.10;0.10;;;;;;;;;;5095109;28;20058;-80
2022/05/24 13:33:52;;;;;;;0.10;0.10;;;;;;;;;;5113181;28;20056;-80
2022/05/24 13:36:26;;;;;;;0.00;0.00;;;;;;;;;;5112854;28;20023;-83
2022/05/24 13:39:05;;;;;;;0.10;0.10;;;;;;;;;;5112909;28;20395;-80
2022/05/24 13:41:31;;;;;;;0.00;0.00;;;;;;;;;;5112471;28;20024;-81
2022/05/24 13:44:15;;;;;;;0.10;0.10;;;;;;;;;;5112772;28;20038;-81
2022/05/24 13:46:49;;;;;;;0.10;0.10;;;;;;;;;;5094692;28;20068;-81
2022/05/24 13:49:28;;;;;;;0.10;0.10;;;;;;;;;;5112387;28;20027;-81
2022/05/24 13:51:54;;;;;;;0.10;0.10;;;;;;;;;;5112594;28;20027;-83
2022/05/24 13:54:33;;;;;;;0.10;0.10;;;;;;;;;;5094123;28;20080;-83
2022/05/24 13:57:00;;;;;;;0.10;0.10;;;;;;;;;;5094174;28;20035;-81
2022/05/24 13:59:26;;;;;;;0.10;0.10;;;;;;;;;;5094094;28;20415;-81
2022/05/24 14:01:57;;;;;;;0.10;0.10;;;;;;;;;;5094274;28;20023;-82
2022/05/24 14:04:26;;;;;;;0.10;0.10;;;;;;;;;;5112140;28;20024;-81
2022/05/24 14:07:04;;;;;;;0.10;0.10;;;;;;;;;;5094006;28;20202;-81
2022/05/24 14:09:33;;;;;;;0.00;0.00;;;;;;;;;;5112105;28;20116;-80
2022/05/24 14:12:00;;;;;;;0.10;0.10;;;;;;;;;;5112222;28;20020;-80
2022/05/24 14:14:31;;;;;;;0.10;0.10;;;;;;;;;;5111805;28;20035;-80
2022/05/24 14:16:58;;;;;;;0.10;0.10;;;;;;;;;;5112079;28;20403;-82
2022/05/24 14:19:24;;;;;;;0.10;0.10;;;;;;;;;;5111926;28;20023;-81
2022/05/24 14:21:54;;;;;;;0.10;0.10;;;;;;;;;;5093772;28;20023;-79
2022/05/24 14:24:21;;;;;;;0.10;0.10;;;;;;;;;;5111778;28;20016;-81
2022/05/24 14:26:49;;;;;;;0.10;0.10;;;;;;;;;;5093677;28;20032;-81
2022/05/24 14:29:16;;;;;;;0.00;0.00;;;;;;;;;;5093602;28;20019;-81
2022/05/24 14:31:42;;;;;;;0.10;0.10;;;;;;;;;;5112119;28;20070;-81
2022/05/24 14:34:10;;;;;;;0.10;0.10;;;;;;;;;;5112191;28;20027;-81
2022/05/24 14:36:36;;;;;;;0.10;0.10;;;;;;;;;;5093452;28;20046;-80
2022/05/24 14:39:03;;;;;;;0.10;0.10;;;;;;;;;;5093780;28;20080;-80
2022/05/24 14:41:30;;;;;;;0.00;0.00;;;;;;;;;;5111620;28;20024;-80
2022/05/24 14:43:57;;;;;;;0.10;0.10;;;;;;;;;;5111898;28;20019;-80
2022/05/24 14:46:23;;;;;;;0.13;0.13;;;;;;;;;;5111585;28;20425;-81
2022/05/24 14:48:51;;;;;;;0.10;0.10;;;;;;;;;;5111827;28;20032;-80
2022/05/24 14:51:19;;;;;;;0.10;0.10;;;;;;;;;;5093246;28;20034;-81
2022/05/24 14:53:45;;;;;;;0.10;0.10;;;;;;;;;;5093478;28;20034;-81
2022/05/24 14:56:12;;;;;;;0.10;0.10;;;;;;;;;;5112102;28;20023;-81
2022/05/24 14:58:38;;;;;;;0.10;0.10;;;;;;;;;;5093529;28;20047;-80
2022/05/24 15:01:04;;;;;;;0.10;0.10;;;;;;;;;;5111656;28;20098;-81
2022/05/24 15:03:30;;;;;;;0.10;0.10;;;;;;;;;;5111478;28;20103;-81
2022/05/24 15:05:56;;;;;;;0.10;0.10;;;;;;;;;;5111758;28;20047;-81
2022/05/24 15:16:36;;;;;;;0.10;0.10;;;;;;;;;;5111489;28;20097;-83
2022/05/24 15:19:03;;;;;;;0.10;0.10;;;;;;;;;;5111400;28;20035;-80
2022/05/24 15:21:34;;;;;;;0.10;0.10;;;;;;;;;;5111201;28;20133;-80
2022/05/24 15:24:02;;;;;;;0.10;0.10;;;;;;;;;;5111302;28;20032;-79
2022/05/24 15:26:34;;;;;;;0.10;0.10;;;;;;;;;;5111042;28;20024;-80
2022/05/24 15:29:01;;;;;;;0.10;0.10;;;;;;;;;;5093026;28;20026;-80
2022/05/24 15:31:27;;;;;;;0.10;0.10;;;;;;;;;;5092678;28;20034;-80
2022/05/24 15:33:53;;;;;;;0.10;0.10;;;;;;;;;;5093062;28;20023;-80
2022/05/24 15:36:21;;;;;;;0.10;0.10;;;;;;;;;;5110927;28;20028;-80
2022/05/24 15:38:47;;;;;;;0.10;0.10;;;;;;;;;;5094917;28;20092;-79
2022/05/24 15:41:13;;;;;;;0.10;0.10;;;;;;;;;;5114945;28;20099;-80
2022/05/24 15:43:41;;;;;;;0.10;0.10;;;;;;;;;;5115439;28;20471;-81
2022/05/24 15:46:08;;;;;;;0.10;0.10;;;;;;;;;;5115380;28;20483;-81
2022/05/24 15:48:34;;;;;;;0.10;0.10;;;;;;;;;;5114772;28;20026;-80
2022/05/24 15:51:00;;;;;;;0.10;0.10;;;;;;;;;;5114888;28;20530;-80